• Join FlightAware (Why Join?)
  • Login
  • US Flag 
08:54PM EST


 

Airport Tracker/Info


-or-


 

Live Flight TrackerFlight Track Log ✈ EJA929 ✈ 22-Feb-2014 ✈ KBCT - TNCM / SXM

Flight Track Log - Related Links

Times and Time Zones

All times are in EST time to prevent confusion due to time zone crossing. See the EJA929 flight status page for this flight to view local times or setup timezone preferences in your user account.

Time Position Orientation Groundspeed Altitude Reporting Facility
EST Latitude Longitude Course Direction KTS MPH feet Rate Location/Type
09:16AM 26.4814 -80.0758 90° East 271 312 7,100  Level Miami Center
09:17AM 26.5394 -80.0103 45° Northeast 295 339 7,100 -60 Level Miami Center
09:18AM 26.5950 -79.9444 47° Northeast 295 339 7,000  Descending Miami Center
09:19AM 26.6136 -79.8589 76° East 278 320 7,100  Climbing Miami Center
09:20AM 26.6167 -79.2236 90° East  Level FlightAware Approximate
09:20AM 26.6217 -79.7661 84° East 283 326 7,100  Level Miami Center
09:21AM 26.6319 -79.6733 83° East 295 339 7,000 420 Descending Miami Center
09:22AM 26.6397 -79.5900 84° East 295 339 8,000 1,800 Climbing Miami Center
09:23AM 26.6519 -79.4903 82° East 295 339 10,700 1,800 Climbing Miami Center
09:24AM 26.6600 -79.3906 85° East 327 376 11,600 1,080 Climbing Miami Center
09:25AM 26.6725 -79.2675 83° East 351 404 12,900 1,500 Climbing Miami Center
09:26AM 26.6703 -79.1536 91° East 373 429 14,700 1,620 Climbing Miami Center
09:27AM 26.6156 -79.0478 120° Southeast 366 421 16,200 1,440 Climbing Miami Center
09:28AM 26.5500 -78.9422 125° Southeast 384 442 17,600 1,200 Climbing Miami Center
09:29AM 26.4869 -78.8344 123° Southeast 409 471 18,700 1,200 Climbing Miami Center
09:30AM 26.4236 -78.7219 122° Southeast 423 487 20,000 1,140 Climbing Miami Center
09:31AM 26.3497 -78.6117 127° Southeast 435 501 21,000 1,200 Climbing Miami Center
09:32AM 26.2842 -78.4903 121° Southeast 447 514 22,500 1,680 Climbing Miami Center
09:33AM 26.2144 -78.3689 123° Southeast 453 521 24,400 1,680 Climbing Miami Center
09:34AM 26.1467 -78.2478 122° Southeast 458 527 25,900 1,380 Climbing Miami Center
09:35AM 26.0769 -78.1267 123° Southeast 463 533 27,200 1,320 Climbing Miami Center
09:36AM 26.0047 -78.0056 124° Southeast 463 533 28,600 1,320 Climbing Miami Center
09:37AM 25.9325 -77.8847 124° Southeast 469 540 29,900 1,260 Climbing Miami Center
09:38AM 25.8603 -77.7525 121° Southeast 474 545 31,200 1,260 Climbing Miami Center
09:39AM 25.7836 -77.6228 123° Southeast 494 568 32,500 1,440 Climbing Miami Center
09:40AM 25.7089 -77.4908 122° Southeast 499 574 34,100 1,620 Climbing Miami Center
09:41AM 25.6217 -77.3450 124° Southeast 511 588 35,800 1,440 Climbing Miami Center
09:42AM 25.5406 -77.2067 123° Southeast 511 588 37,000 600 Climbing Miami Center
09:43AM 25.4678 -77.0819 123° Southeast 525 604 37,000 300 Level Miami Center
09:44AM 25.3800 -76.9322 123° Southeast 553 636 37,700 840 Climbing Miami Center
09:45AM 25.2903 -76.7875 124° Southeast 566 651 38,700 960 Climbing Miami Center
09:46AM 25.2064 -76.6428 123° Southeast 571 657 39,700 960 Climbing Miami Center
09:47AM 25.1206 -76.4983 123° Southeast 571 657 40,700 600 Climbing Miami Center
09:48AM 25.0344 -76.3564 124° Southeast 566 651 41,000 120 Climbing Miami Center
09:49AM 24.9503 -76.2100 122° Southeast 566 651 41,000  Level Miami Center
09:50AM 24.8597 -76.0664 125° Southeast 571 657 41,000  Level Miami Center
09:51AM 24.7667 -75.9089 123° Southeast 571 657 41,000  Level Miami Center
09:52AM 24.6781 -75.7611 123° Southeast 571 657 41,000  Level Miami Center
09:53AM 24.5892 -75.6203 125° Southeast 571 657 41,000  Level Miami Center
09:54AM 24.5000 -75.4725 124° Southeast 571 657 41,000  Level Miami Center
09:55AM 24.4236 -75.3433 123° Southeast 571 657 41,000  Level Miami Center
09:56AM 24.3342 -75.1986 124° Southeast 571 657 41,000  Level Miami Center
09:57AM 24.2447 -75.0517 124° Southeast 571 657 41,000  Level Miami Center
09:58AM 24.1572 -74.9094 124° Southeast 571 657 41,000  Level Miami Center
09:59AM 24.0675 -74.7628 124° Southeast 571 657 41,000  Level Miami Center
10:00AM 23.9775 -74.6211 125° Southeast 571 657 41,000  Level Miami Center
10:01AM 23.8897 -74.4750 123° Southeast 571 657 41,000  Level Miami Center
10:02AM 23.7975 -74.3336 125° Southeast 571 657 41,000  Level Miami Center
10:03AM 23.7092 -74.1881 124° Southeast 571 657 41,000  Level Miami Center
10:04AM 23.6169 -74.0469 125° Southeast 571 657 41,000  Level Miami Center
10:05AM 23.5306 -73.9017 123° Southeast 571 657 41,000  Level Miami Center
10:06AM 23.4378 -73.7611 126° Southeast 571 657 41,000  Level Miami Center
10:07AM 23.3492 -73.6208 125° Southeast 571 657 41,000  Level Miami Center
10:08AM 23.2647 -73.4783 123° Southeast 571 657 41,000  Level Miami Center
10:09AM 23.1736 -73.3383 125° Southeast 571 657 41,000  Level Miami Center
10:10AM 23.0806 -73.1964 125° Southeast 571 657 41,000  Level Miami Center
10:11AM 22.9808 -73.0506 127° Southeast 565 650 41,000  Level Miami Center
10:12AM 22.8936 -72.9089 124° Southeast 565 650 41,000  Level Miami Center
10:13AM 22.8019 -72.7675 125° Southeast 565 650 41,000  Level Miami Center
10:14AM 22.7125 -72.6261 124° Southeast 570 656 41,000  Level Miami Center
10:15AM 22.6208 -72.4853 125° Southeast 570 656 41,000  Level Miami Center
10:16AM 22.5289 -72.3422 125° Southeast 570 656 41,000  Level Miami Center
10:17AM 22.4369 -72.2017 125° Southeast 570 656 41,000  Level Miami Center
10:18AM 22.3450 -72.0614 125° Southeast 570 656 41,000  Level Miami Center
10:19AM 22.2528 -71.9192 125° Southeast 570 656 41,000  Level Miami Center
10:20AM 22.1628 -71.7814 125° Southeast 569 655 41,000  Level Miami Center
10:21AM 22.0681 -71.6394 126° Southeast 569 655 41,000  Level Miami Center
10:22AM 21.9756 -71.4978 125° Southeast 569 655 41,000  Level Miami Center
10:23AM 21.8850 -71.3583 125° Southeast 574 661 41,000  Level Miami Center
10:24AM 21.7922 -71.2169 125° Southeast 574 661 41,000  Level Miami Center
10:25AM 21.7017 -71.0781 125° Southeast 574 661 41,000  Level Miami Center
10:26AM 21.6175 -70.9522 126° Southeast 569 655 41,000  Level Miami Center
10:27AM 21.5244 -70.8136 126° Southeast 569 655 41,000  Level Miami Center
10:28AM 21.4314 -70.6775 126° Southeast 569 655 41,000  Level Miami Center
10:29AM 21.3403 -70.5394 125° Southeast 569 655 41,000  Level Miami Center
10:30AM 21.2469 -70.4014 126° Southeast 569 655 41,000  Level Miami Center
10:31AM 21.1558 -70.2658 126° Southeast 569 655 41,000  Level Miami Center
10:32AM 21.0644 -70.1281 125° Southeast 569 655 41,000  Level Miami Center
10:33AM 20.9689 -69.9953 128° Southeast 569 655 41,000  Level Miami Center
10:34AM 20.8814 -69.8578 124° Southeast 569 655 41,000  Level Miami Center
10:35AM 20.7919 -69.7228 125° Southeast 569 655 41,000  Level Miami Center
10:36AM 20.7006 -69.5925 127° Southeast 564 649 41,000  Level Miami Center
10:37AM 20.6089 -69.4625 127° Southeast 559 643 41,000  Level Miami Center
10:38AM 20.5194 -69.3303 126° Southeast 554 638 41,000  Level Miami Center
10:39AM 20.4317 -69.2003 126° Southeast 554 638 41,000  Level Miami Center
10:40AM 20.3439 -69.0661 125° Southeast 554 638 41,000  Level Miami Center
10:41AM 20.2822 -68.9194 114° Southeast 538 619 41,000  Level Miami Center
10:42AM 20.2247 -68.7686 112° Southeast 544 626 41,000  Level Miami Center
10:44AM 20.1333 -68.5000 110° East 550 633 41,000  Level San Juan Center
10:45AM 20.0667 -68.3333 113° Southeast 550 633 41,000  Level San Juan Center
10:46AM 20.0167 -68.1833 110° East 560 644 41,000  Level San Juan Center
10:47AM 19.9667 -68.0333 110° East 560 644 41,000  Level San Juan Center
10:48AM 19.9167 -67.8667 108° East 560 644 41,000  Level San Juan Center
10:49AM 19.8500 -67.7167 115° Southeast 570 656 41,000  Level San Juan Center
10:50AM 19.8000 -67.5667 109° East 560 644 41,000  Level San Juan Center
10:51AM 19.7500 -67.4000 108° East 560 644 41,000  Level San Juan Center
10:52AM 19.6833 -67.2500 115° Southeast 560 644 41,000  Level San Juan Center
10:53AM 19.6333 -67.0833 108° East 560 644 41,000  Level San Juan Center
10:54AM 19.5833 -66.9333 109° East 560 644 41,000  Level San Juan Center
10:55AM 19.5333 -66.7833 109° East 570 656 41,000  Level San Juan Center
10:56AM 19.4667 -66.6167 113° Southeast 560 644 41,000  Level San Juan Center
10:57AM 19.4167 -66.4667 109° East 560 644 41,000  Level San Juan Center
10:58AM 19.3667 -66.3167 109° East 560 644 41,000  Level San Juan Center
10:59AM 19.3000 -66.1500 113° Southeast 570 656 41,000  Level San Juan Center
11:00AM 19.2500 -66.0000 109° East 570 656 41,000 -480 Level San Juan Center
11:01AM 19.1833 -65.8500 115° Southeast 560 644 40,100 -1,440 Descending San Juan Center
11:02AM 19.1333 -65.7000 109° East 550 633 38,100 -2,160 Descending San Juan Center
11:03AM 19.0833 -65.5167 106° East 550 633 35,800 -2,220 Descending San Juan Center
11:04AM 19.0167 -65.3833 118° Southeast 530 610 33,700 -2,040 Descending San Juan Center
11:05AM 18.9667 -65.2333 109° East 530 610 31,800 -2,040 Descending San Juan Center
11:06AM 18.9167 -65.0833 109° East 530 610 29,700 -1,980 Descending San Juan Center
11:07AM 18.8667 -64.9333 109° East 520 598 27,900 -1,800 Descending San Juan Center
11:08AM 18.8000 -64.8000 118° Southeast 510 587 26,100 -1,800 Descending San Juan Center
11:09AM 18.7500 -64.6500 109° East 500 575 24,400 -1,620 Descending San Juan Center
11:10AM 18.7000 -64.5333 114° Southeast 490 564 22,900 -1,620 Descending San Juan Center
11:11AM 18.6667 -64.4000 105° East 480 552 21,200 -1,680 Descending San Juan Center
11:12AM 18.6167 -64.2667 112° Southeast 470 541 19,600 -1,560 Descending San Juan Center
11:13AM 18.5667 -64.1500 114° Southeast 450 518 18,100 -1,500 Descending San Juan Center
11:14AM 18.5167 -64.0333 114° Southeast 440 506 16,700 -1,440 Descending San Juan Center
11:15AM 18.4833 -63.9333 109° East 420 483 15,300 -1,320 Descending San Juan Center
11:16AM 18.4333 -63.8167 114° Southeast 410 472 14,100 -1,200 Descending San Juan Center
11:17AM 18.4000 -63.7333 113° Southeast 330 380 12,900 -1,200 Descending San Juan Center
11:18AM 18.3667 -63.6333 109° East 280 322 11,800 -1,080 Descending San Juan Center
11:19AM 18.3500 -63.5667 105° East 240 276 10,800 -1,020 Descending San Juan Center